sensor_id;sensor_type;location;lat;lon;timestamp;P1;durP1;ratioP1;P2;durP2;ratioP2
9324;SDS011;4701;51.566;6.776;2023-01-10T00:01:16;15.43;;;7.10;;
9324;SDS011;4701;51.566;6.776;2023-01-10T00:03:18;19.77;;;7.23;;
9324;SDS011;4701;51.566;6.776;2023-01-10T00:05:20;13.80;;;7.50;;
9324;SDS011;4701;51.566;6.776;2023-01-10T00:07:23;14.40;;;7.20;;
9324;SDS011;4701;51.566;6.776;2023-01-10T00:09:25;14.13;;;7.43;;
9324;SDS011;4701;51.566;6.776;2023-01-10T00:11:27;16.87;;;7.37;;
9324;SDS011;4701;51.566;6.776;2023-01-10T00:13:46;17.53;;;7.40;;
9324;SDS011;4701;51.566;6.776;2023-01-10T00:15:48;16.20;;;7.83;;
9324;SDS011;4701;51.566;6.776;2023-01-10T00:17:49;17.90;;;7.60;;
9324;SDS011;4701;51.566;6.776;2023-01-10T00:19:51;14.47;;;7.20;;
9324;SDS011;4701;51.566;6.776;2023-01-10T00:21:53;19.40;;;7.33;;
9324;SDS011;4701;51.566;6.776;2023-01-10T00:23:58;14.63;;;6.93;;
9324;SDS011;4701;51.566;6.776;2023-01-10T00:26:12;20.60;;;7.07;;
9324;SDS011;4701;51.566;6.776;2023-01-10T00:28:15;14.57;;;6.90;;
9324;SDS011;4701;51.566;6.776;2023-01-10T00:30:18;12.80;;;6.37;;
9324;SDS011;4701;51.566;6.776;2023-01-10T00:32:21;17.63;;;6.87;;
9324;SDS011;4701;51.566;6.776;2023-01-10T00:34:23;15.17;;;5.90;;
9324;SDS011;4701;51.566;6.776;2023-01-10T00:36:24;16.63;;;6.57;;
9324;SDS011;4701;51.566;6.776;2023-01-10T00:38:26;22.97;;;6.37;;
9324;SDS011;4701;51.566;6.776;2023-01-10T00:40:31;13.60;;;6.37;;
9324;SDS011;4701;51.566;6.776;2023-01-10T00:42:33;15.17;;;6.20;;
9324;SDS011;4701;51.566;6.776;2023-01-10T00:44:52;13.10;;;5.53;;
9324;SDS011;4701;51.566;6.776;2023-01-10T00:46:53;17.27;;;6.30;;
9324;SDS011;4701;51.566;6.776;2023-01-10T00:48:55;10.40;;;5.53;;
9324;SDS011;4701;51.566;6.776;2023-01-10T00:50:57;12.07;;;5.73;;
9324;SDS011;4701;51.566;6.776;2023-01-10T00:52:59;14.27;;;5.90;;
9324;SDS011;4701;51.566;6.776;2023-01-10T00:55:01;15.80;;;5.50;;
9324;SDS011;4701;51.566;6.776;2023-01-10T00:57:04;19.40;;;5.50;;
9324;SDS011;4701;51.566;6.776;2023-01-10T00:59:06;11.73;;;5.33;;
9324;SDS011;4701;51.566;6.776;2023-01-10T01:01:08;13.47;;;5.60;;
9324;SDS011;4701;51.566;6.776;2023-01-10T01:03:10;16.73;;;5.87;;
9324;SDS011;4701;51.566;6.776;2023-01-10T01:05:12;13.73;;;5.17;;
9324;SDS011;4701;51.566;6.776;2023-01-10T01:07:14;10.20;;;4.87;;
9324;SDS011;4701;51.566;6.776;2023-01-10T01:09:16;14.37;;;4.73;;
9324;SDS011;4701;51.566;6.776;2023-01-10T01:11:18;17.70;;;5.13;;
9324;SDS011;4701;51.566;6.776;2023-01-10T01:13:21;10.47;;;4.93;;
9324;SDS011;4701;51.566;6.776;2023-01-10T01:15:23;10.70;;;5.10;;
9324;SDS011;4701;51.566;6.776;2023-01-10T01:17:26;10.33;;;4.67;;
9324;SDS011;4701;51.566;6.776;2023-01-10T01:19:27;15.23;;;5.10;;
9324;SDS011;4701;51.566;6.776;2023-01-10T01:21:29;14.00;;;5.33;;
9324;SDS011;4701;51.566;6.776;2023-01-10T01:23:32;13.83;;;4.53;;
9324;SDS011;4701;51.566;6.776;2023-01-10T01:25:34;16.90;;;4.40;;
9324;SDS011;4701;51.566;6.776;2023-01-10T01:27:36;12.77;;;5.00;;
9324;SDS011;4701;51.566;6.776;2023-01-10T01:29:39;12.73;;;4.33;;
9324;SDS011;4701;51.566;6.776;2023-01-10T01:31:41;16.77;;;4.90;;
9324;SDS011;4701;51.566;6.776;2023-01-10T01:33:43;16.20;;;4.10;;
9324;SDS011;4701;51.566;6.776;2023-01-10T01:35:46;7.73;;;4.03;;
9324;SDS011;4701;51.566;6.776;2023-01-10T01:37:49;14.97;;;4.53;;
9324;SDS011;4701;51.566;6.776;2023-01-10T01:39:51;14.83;;;4.17;;
9324;SDS011;4701;51.566;6.776;2023-01-10T01:41:53;16.00;;;4.83;;
9324;SDS011;4701;51.566;6.776;2023-01-10T01:43:59;12.70;;;3.73;;
9324;SDS011;4701;51.566;6.776;2023-01-10T01:46:04;13.93;;;4.20;;
9324;SDS011;4701;51.566;6.776;2023-01-10T01:48:08;13.67;;;4.43;;
9324;SDS011;4701;51.566;6.776;2023-01-10T01:50:15;15.47;;;3.90;;
9324;SDS011;4701;51.566;6.776;2023-01-10T01:52:23;9.97;;;3.43;;
9324;SDS011;4701;51.566;6.776;2023-01-10T01:54:29;11.47;;;4.10;;
9324;SDS011;4701;51.566;6.776;2023-01-10T01:56:35;15.43;;;4.30;;
9324;SDS011;4701;51.566;6.776;2023-01-10T01:58:43;14.00;;;3.67;;
9324;SDS011;4701;51.566;6.776;2023-01-10T02:00:49;13.40;;;3.73;;
9324;SDS011;4701;51.566;6.776;2023-01-10T02:02:53;11.67;;;3.07;;
9324;SDS011;4701;51.566;6.776;2023-01-10T02:04:59;15.17;;;3.40;;
9324;SDS011;4701;51.566;6.776;2023-01-10T02:07:05;13.40;;;3.70;;
9324;SDS011;4701;51.566;6.776;2023-01-10T02:09:07;14.13;;;3.80;;
9324;SDS011;4701;51.566;6.776;2023-01-10T02:11:17;9.80;;;3.37;;
9324;SDS011;4701;51.566;6.776;2023-01-10T02:13:21;16.70;;;4.03;;
9324;SDS011;4701;51.566;6.776;2023-01-10T02:15:25;11.50;;;3.60;;
9324;SDS011;4701;51.566;6.776;2023-01-10T02:17:31;11.60;;;3.80;;
9324;SDS011;4701;51.566;6.776;2023-01-10T02:19:36;10.37;;;3.07;;
9324;SDS011;4701;51.566;6.776;2023-01-10T02:21:54;10.20;;;3.00;;
9324;SDS011;4701;51.566;6.776;2023-01-10T02:24:39;17.23;;;3.93;;
9324;SDS011;4701;51.566;6.776;2023-01-10T02:26:59;14.97;;;3.53;;
9324;SDS011;4701;51.566;6.776;2023-01-10T02:29:19;12.07;;;3.43;;
9324;SDS011;4701;51.566;6.776;2023-01-10T02:34:34;11.17;;;3.77;;
9324;SDS011;4701;51.566;6.776;2023-01-10T02:36:48;12.70;;;4.07;;
9324;SDS011;4701;51.566;6.776;2023-01-10T02:38:59;15.83;;;3.73;;
9324;SDS011;4701;51.566;6.776;2023-01-10T02:41:08;16.13;;;3.67;;
9324;SDS011;4701;51.566;6.776;2023-01-10T02:43:19;15.17;;;3.63;;
9324;SDS011;4701;51.566;6.776;2023-01-10T02:45:25;14.73;;;3.73;;
9324;SDS011;4701;51.566;6.776;2023-01-10T02:47:36;16.47;;;4.40;;
9324;SDS011;4701;51.566;6.776;2023-01-10T02:49:41;10.47;;;4.00;;
9324;SDS011;4701;51.566;6.776;2023-01-10T02:51:46;10.40;;;3.97;;
9324;SDS011;4701;51.566;6.776;2023-01-10T02:53:49;8.73;;;3.23;;
9324;SDS011;4701;51.566;6.776;2023-01-10T02:55:57;12.43;;;3.50;;
9324;SDS011;4701;51.566;6.776;2023-01-10T02:58:20;12.17;;;3.60;;
9324;SDS011;4701;51.566;6.776;2023-01-10T03:00:39;12.70;;;3.77;;
9324;SDS011;4701;51.566;6.776;2023-01-10T03:02:57;12.77;;;3.73;;
9324;SDS011;4701;51.566;6.776;2023-01-10T03:05:09;10.10;;;3.83;;
9324;SDS011;4701;51.566;6.776;2023-01-10T03:07:19;7.97;;;3.40;;
9324;SDS011;4701;51.566;6.776;2023-01-10T03:09:29;10.80;;;3.73;;
9324;SDS011;4701;51.566;6.776;2023-01-10T03:11:35;12.17;;;4.00;;
9324;SDS011;4701;51.566;6.776;2023-01-10T03:13:45;19.57;;;7.70;;
9324;SDS011;4701;51.566;6.776;2023-01-10T03:15:51;16.83;;;4.30;;
9324;SDS011;4701;51.566;6.776;2023-01-10T03:17:59;12.53;;;3.80;;
9324;SDS011;4701;51.566;6.776;2023-01-10T03:20:04;16.00;;;4.40;;
9324;SDS011;4701;51.566;6.776;2023-01-10T03:22:07;15.77;;;3.73;;
9324;SDS011;4701;51.566;6.776;2023-01-10T03:24:12;13.47;;;3.43;;
9324;SDS011;4701;51.566;6.776;2023-01-10T03:26:18;20.37;;;3.87;;
9324;SDS011;4701;51.566;6.776;2023-01-10T03:28:27;15.10;;;3.67;;
9324;SDS011;4701;51.566;6.776;2023-01-10T03:30:36;14.77;;;4.07;;
9324;SDS011;4701;51.566;6.776;2023-01-10T03:32:43;20.63;;;4.27;;
9324;SDS011;4701;51.566;6.776;2023-01-10T03:34:46;15.33;;;4.23;;
9324;SDS011;4701;51.566;6.776;2023-01-10T03:36:49;19.20;;;8.03;;
9324;SDS011;4701;51.566;6.776;2023-01-10T03:38:56;13.93;;;3.97;;
9324;SDS011;4701;51.566;6.776;2023-01-10T03:41:06;15.57;;;4.17;;
9324;SDS011;4701;51.566;6.776;2023-01-10T03:43:15;13.23;;;3.40;;
9324;SDS011;4701;51.566;6.776;2023-01-10T03:45:39;12.00;;;3.90;;
9324;SDS011;4701;51.566;6.776;2023-01-10T03:47:45;13.27;;;3.63;;
9324;SDS011;4701;51.566;6.776;2023-01-10T03:49:55;13.70;;;4.53;;
9324;SDS011;4701;51.566;6.776;2023-01-10T03:52:00;14.87;;;4.67;;
9324;SDS011;4701;51.566;6.776;2023-01-10T03:54:04;16.43;;;3.67;;
9324;SDS011;4701;51.566;6.776;2023-01-10T03:56:06;15.37;;;4.30;;
9324;SDS011;4701;51.566;6.776;2023-01-10T03:58:12;19.03;;;3.43;;
9324;SDS011;4701;51.566;6.776;2023-01-10T04:00:16;14.47;;;4.13;;
9324;SDS011;4701;51.566;6.776;2023-01-10T04:02:19;11.00;;;3.83;;
9324;SDS011;4701;51.566;6.776;2023-01-10T04:04:21;13.90;;;3.73;;
9324;SDS011;4701;51.566;6.776;2023-01-10T04:06:24;17.70;;;3.97;;
9324;SDS011;4701;51.566;6.776;2023-01-10T04:08:26;14.20;;;4.30;;
9324;SDS011;4701;51.566;6.776;2023-01-10T04:10:28;11.17;;;3.90;;
9324;SDS011;4701;51.566;6.776;2023-01-10T04:12:30;6.77;;;2.90;;
9324;SDS011;4701;51.566;6.776;2023-01-10T04:14:32;14.43;;;3.40;;
9324;SDS011;4701;51.566;6.776;2023-01-10T04:16:33;12.43;;;4.00;;
9324;SDS011;4701;51.566;6.776;2023-01-10T04:18:35;10.83;;;3.70;;
9324;SDS011;4701;51.566;6.776;2023-01-10T04:20:37;14.17;;;4.03;;
9324;SDS011;4701;51.566;6.776;2023-01-10T04:22:40;13.07;;;3.73;;
9324;SDS011;4701;51.566;6.776;2023-01-10T04:24:42;15.17;;;3.80;;
9324;SDS011;4701;51.566;6.776;2023-01-10T04:26:46;11.73;;;3.47;;
9324;SDS011;4701;51.566;6.776;2023-01-10T04:28:48;13.20;;;4.17;;
9324;SDS011;4701;51.566;6.776;2023-01-10T04:30:50;15.83;;;3.03;;
9324;SDS011;4701;51.566;6.776;2023-01-10T04:32:51;12.53;;;3.40;;
9324;SDS011;4701;51.566;6.776;2023-01-10T04:34:53;9.00;;;3.23;;
9324;SDS011;4701;51.566;6.776;2023-01-10T04:36:55;9.53;;;3.77;;
9324;SDS011;4701;51.566;6.776;2023-01-10T04:39:01;10.87;;;3.50;;
9324;SDS011;4701;51.566;6.776;2023-01-10T04:41:03;10.77;;;3.53;;
9324;SDS011;4701;51.566;6.776;2023-01-10T04:43:05;15.73;;;3.97;;
9324;SDS011;4701;51.566;6.776;2023-01-10T04:45:08;13.13;;;3.47;;
9324;SDS011;4701;51.566;6.776;2023-01-10T04:47:11;16.20;;;4.23;;
9324;SDS011;4701;51.566;6.776;2023-01-10T04:49:12;12.43;;;3.00;;
9324;SDS011;4701;51.566;6.776;2023-01-10T04:51:14;9.87;;;3.40;;
9324;SDS011;4701;51.566;6.776;2023-01-10T04:53:16;11.87;;;3.27;;
9324;SDS011;4701;51.566;6.776;2023-01-10T04:55:19;21.03;;;3.80;;
9324;SDS011;4701;51.566;6.776;2023-01-10T04:57:21;16.03;;;3.47;;
9324;SDS011;4701;51.566;6.776;2023-01-10T04:59:23;13.57;;;3.77;;
9324;SDS011;4701;51.566;6.776;2023-01-10T05:01:25;8.40;;;3.10;;
9324;SDS011;4701;51.566;6.776;2023-01-10T05:03:27;13.07;;;3.30;;
9324;SDS011;4701;51.566;6.776;2023-01-10T05:05:29;9.93;;;3.10;;
9324;SDS011;4701;51.566;6.776;2023-01-10T05:07:34;12.00;;;3.10;;
9324;SDS011;4701;51.566;6.776;2023-01-10T05:09:36;11.43;;;3.20;;
9324;SDS011;4701;51.566;6.776;2023-01-10T05:11:40;14.53;;;3.07;;
9324;SDS011;4701;51.566;6.776;2023-01-10T05:13:41;13.07;;;3.87;;
9324;SDS011;4701;51.566;6.776;2023-01-10T05:15:43;15.60;;;3.30;;
9324;SDS011;4701;51.566;6.776;2023-01-10T05:17:45;12.90;;;3.93;;
9324;SDS011;4701;51.566;6.776;2023-01-10T05:19:47;11.67;;;3.60;;
9324;SDS011;4701;51.566;6.776;2023-01-10T05:21:49;9.80;;;3.67;;
9324;SDS011;4701;51.566;6.776;2023-01-10T05:23:52;11.27;;;3.50;;
9324;SDS011;4701;51.566;6.776;2023-01-10T05:25:54;16.77;;;3.93;;
9324;SDS011;4701;51.566;6.776;2023-01-10T05:27:58;11.80;;;3.00;;
9324;SDS011;4701;51.566;6.776;2023-01-10T05:30:00;16.90;;;4.03;;
9324;SDS011;4701;51.566;6.776;2023-01-10T05:32:01;12.83;;;3.07;;
9324;SDS011;4701;51.566;6.776;2023-01-10T05:34:03;15.17;;;3.67;;
9324;SDS011;4701;51.566;6.776;2023-01-10T05:36:05;9.20;;;3.07;;
9324;SDS011;4701;51.566;6.776;2023-01-10T05:38:08;14.97;;;4.13;;
9324;SDS011;4701;51.566;6.776;2023-01-10T05:40:10;18.77;;;3.50;;
9324;SDS011;4701;51.566;6.776;2023-01-10T05:42:12;9.80;;;2.93;;
9324;SDS011;4701;51.566;6.776;2023-01-10T05:44:15;15.53;;;3.60;;
9324;SDS011;4701;51.566;6.776;2023-01-10T05:46:17;13.37;;;3.30;;
9324;SDS011;4701;51.566;6.776;2023-01-10T05:48:19;16.27;;;3.80;;
9324;SDS011;4701;51.566;6.776;2023-01-10T05:50:21;15.67;;;4.10;;
9324;SDS011;4701;51.566;6.776;2023-01-10T05:52:23;15.47;;;3.77;;
9324;SDS011;4701;51.566;6.776;2023-01-10T05:54:25;10.47;;;2.80;;
9324;SDS011;4701;51.566;6.776;2023-01-10T05:56:28;15.57;;;3.50;;
9324;SDS011;4701;51.566;6.776;2023-01-10T05:58:30;15.63;;;4.13;;
9324;SDS011;4701;51.566;6.776;2023-01-10T06:00:33;10.63;;;3.17;;
9324;SDS011;4701;51.566;6.776;2023-01-10T06:02:35;25.00;;;3.70;;
9324;SDS011;4701;51.566;6.776;2023-01-10T06:04:37;18.27;;;3.67;;
9324;SDS011;4701;51.566;6.776;2023-01-10T06:06:39;18.67;;;3.87;;
9324;SDS011;4701;51.566;6.776;2023-01-10T06:08:41;17.47;;;3.87;;
9324;SDS011;4701;51.566;6.776;2023-01-10T06:10:43;16.77;;;3.83;;
9324;SDS011;4701;51.566;6.776;2023-01-10T06:12:45;15.97;;;3.87;;
9324;SDS011;4701;51.566;6.776;2023-01-10T06:14:48;18.17;;;4.73;;
9324;SDS011;4701;51.566;6.776;2023-01-10T06:16:52;18.73;;;3.77;;
9324;SDS011;4701;51.566;6.776;2023-01-10T06:18:53;15.17;;;3.67;;
9324;SDS011;4701;51.566;6.776;2023-01-10T06:20:55;15.63;;;4.23;;
9324;SDS011;4701;51.566;6.776;2023-01-10T06:22:57;16.87;;;3.50;;
9324;SDS011;4701;51.566;6.776;2023-01-10T06:25:01;13.60;;;3.33;;
9324;SDS011;4701;51.566;6.776;2023-01-10T06:27:03;16.87;;;3.63;;
9324;SDS011;4701;51.566;6.776;2023-01-10T06:29:05;19.23;;;4.27;;
9324;SDS011;4701;51.566;6.776;2023-01-10T06:31:07;14.97;;;3.53;;
9324;SDS011;4701;51.566;6.776;2023-01-10T06:33:10;13.77;;;3.83;;
9324;SDS011;4701;51.566;6.776;2023-01-10T06:35:12;15.07;;;4.07;;
9324;SDS011;4701;51.566;6.776;2023-01-10T06:37:16;21.27;;;5.00;;
9324;SDS011;4701;51.566;6.776;2023-01-10T06:39:18;12.37;;;3.37;;
9324;SDS011;4701;51.566;6.776;2023-01-10T06:41:22;22.03;;;4.07;;
9324;SDS011;4701;51.566;6.776;2023-01-10T06:43:24;14.27;;;4.10;;
9324;SDS011;4701;51.566;6.776;2023-01-10T06:45:26;18.17;;;3.83;;
9324;SDS011;4701;51.566;6.776;2023-01-10T06:47:28;22.23;;;4.13;;
9324;SDS011;4701;51.566;6.776;2023-01-10T06:49:31;19.77;;;4.37;;
9324;SDS011;4701;51.566;6.776;2023-01-10T06:51:33;19.13;;;4.73;;
9324;SDS011;4701;51.566;6.776;2023-01-10T06:53:35;17.77;;;3.97;;
9324;SDS011;4701;51.566;6.776;2023-01-10T06:55:37;15.50;;;3.83;;
9324;SDS011;4701;51.566;6.776;2023-01-10T06:57:41;14.97;;;3.97;;
9324;SDS011;4701;51.566;6.776;2023-01-10T06:59:43;15.63;;;4.00;;
9324;SDS011;4701;51.566;6.776;2023-01-10T07:01:45;11.27;;;3.33;;
9324;SDS011;4701;51.566;6.776;2023-01-10T07:03:47;23.40;;;4.60;;
9324;SDS011;4701;51.566;6.776;2023-01-10T07:05:51;17.13;;;4.23;;
9324;SDS011;4701;51.566;6.776;2023-01-10T07:07:52;21.37;;;4.07;;
9324;SDS011;4701;51.566;6.776;2023-01-10T07:09:54;19.27;;;4.07;;
9324;SDS011;4701;51.566;6.776;2023-01-10T07:11:58;18.03;;;4.20;;
9324;SDS011;4701;51.566;6.776;2023-01-10T07:14:00;17.27;;;3.97;;
9324;SDS011;4701;51.566;6.776;2023-01-10T07:16:02;16.70;;;4.10;;
9324;SDS011;4701;51.566;6.776;2023-01-10T07:18:05;16.10;;;3.60;;
9324;SDS011;4701;51.566;6.776;2023-01-10T07:20:07;15.90;;;4.20;;
9324;SDS011;4701;51.566;6.776;2023-01-10T07:22:11;18.30;;;3.87;;
9324;SDS011;4701;51.566;6.776;2023-01-10T07:24:14;16.57;;;4.17;;
9324;SDS011;4701;51.566;6.776;2023-01-10T07:26:17;21.47;;;4.33;;
9324;SDS011;4701;51.566;6.776;2023-01-10T07:28:19;17.97;;;4.17;;
9324;SDS011;4701;51.566;6.776;2023-01-10T07:30:21;15.00;;;4.03;;
9324;SDS011;4701;51.566;6.776;2023-01-10T07:32:25;12.77;;;3.60;;
9324;SDS011;4701;51.566;6.776;2023-01-10T07:34:27;20.87;;;4.63;;
9324;SDS011;4701;51.566;6.776;2023-01-10T07:36:29;10.77;;;3.50;;
9324;SDS011;4701;51.566;6.776;2023-01-10T07:38:32;14.57;;;4.10;;
9324;SDS011;4701;51.566;6.776;2023-01-10T07:40:34;21.80;;;4.47;;
9324;SDS011;4701;51.566;6.776;2023-01-10T07:42:36;24.23;;;4.50;;
9324;SDS011;4701;51.566;6.776;2023-01-10T07:44:37;19.40;;;4.13;;
9324;SDS011;4701;51.566;6.776;2023-01-10T07:46:39;17.30;;;4.17;;
9324;SDS011;4701;51.566;6.776;2023-01-10T07:48:42;18.93;;;4.33;;
9324;SDS011;4701;51.566;6.776;2023-01-10T07:50:45;20.47;;;4.43;;
9324;SDS011;4701;51.566;6.776;2023-01-10T07:52:47;17.87;;;4.23;;
9324;SDS011;4701;51.566;6.776;2023-01-10T07:54:50;19.33;;;4.30;;
9324;SDS011;4701;51.566;6.776;2023-01-10T07:56:52;21.83;;;4.57;;
9324;SDS011;4701;51.566;6.776;2023-01-10T07:58:54;21.43;;;5.07;;
9324;SDS011;4701;51.566;6.776;2023-01-10T08:00:56;20.93;;;4.33;;
9324;SDS011;4701;51.566;6.776;2023-01-10T08:02:58;23.93;;;4.40;;
9324;SDS011;4701;51.566;6.776;2023-01-10T08:05:00;20.67;;;4.23;;
9324;SDS011;4701;51.566;6.776;2023-01-10T08:07:02;16.27;;;4.37;;
9324;SDS011;4701;51.566;6.776;2023-01-10T08:09:04;24.67;;;4.63;;
9324;SDS011;4701;51.566;6.776;2023-01-10T08:11:07;16.93;;;3.77;;
9324;SDS011;4701;51.566;6.776;2023-01-10T08:13:10;23.27;;;4.93;;
9324;SDS011;4701;51.566;6.776;2023-01-10T08:15:12;19.97;;;5.07;;
9324;SDS011;4701;51.566;6.776;2023-01-10T08:17:15;19.13;;;4.10;;
9324;SDS011;4701;51.566;6.776;2023-01-10T08:19:19;17.63;;;4.40;;
9324;SDS011;4701;51.566;6.776;2023-01-10T08:21:21;20.17;;;4.43;;
9324;SDS011;4701;51.566;6.776;2023-01-10T08:23:26;17.90;;;4.00;;
9324;SDS011;4701;51.566;6.776;2023-01-10T08:25:28;24.60;;;4.57;;
9324;SDS011;4701;51.566;6.776;2023-01-10T08:27:37;23.07;;;4.60;;
9324;SDS011;4701;51.566;6.776;2023-01-10T08:29:39;16.93;;;4.10;;
9324;SDS011;4701;51.566;6.776;2023-01-10T08:31:42;13.37;;;4.90;;
9324;SDS011;4701;51.566;6.776;2023-01-10T08:33:44;20.77;;;4.23;;
9324;SDS011;4701;51.566;6.776;2023-01-10T08:35:46;23.50;;;5.13;;
9324;SDS011;4701;51.566;6.776;2023-01-10T08:37:47;21.47;;;4.63;;
9324;SDS011;4701;51.566;6.776;2023-01-10T08:39:49;13.10;;;3.80;;
9324;SDS011;4701;51.566;6.776;2023-01-10T08:41:51;19.40;;;4.70;;
9324;SDS011;4701;51.566;6.776;2023-01-10T08:43:55;19.23;;;4.57;;
9324;SDS011;4701;51.566;6.776;2023-01-10T08:45:57;16.30;;;3.77;;
9324;SDS011;4701;51.566;6.776;2023-01-10T08:47:59;23.83;;;5.07;;
9324;SDS011;4701;51.566;6.776;2023-01-10T08:50:01;18.87;;;4.53;;
9324;SDS011;4701;51.566;6.776;2023-01-10T08:52:04;31.27;;;5.70;;
9324;SDS011;4701;51.566;6.776;2023-01-10T08:54:06;18.20;;;3.87;;
9324;SDS011;4701;51.566;6.776;2023-01-10T08:56:08;18.83;;;4.33;;
9324;SDS011;4701;51.566;6.776;2023-01-10T08:58:10;18.90;;;4.10;;
9324;SDS011;4701;51.566;6.776;2023-01-10T09:00:14;26.07;;;5.30;;
9324;SDS011;4701;51.566;6.776;2023-01-10T09:02:16;17.90;;;4.80;;
9324;SDS011;4701;51.566;6.776;2023-01-10T09:04:18;23.00;;;3.67;;
9324;SDS011;4701;51.566;6.776;2023-01-10T09:06:20;24.43;;;5.50;;
9324;SDS011;4701;51.566;6.776;2023-01-10T09:08:23;25.47;;;5.17;;
9324;SDS011;4701;51.566;6.776;2023-01-10T09:10:25;25.63;;;5.50;;
9324;SDS011;4701;51.566;6.776;2023-01-10T09:12:27;22.90;;;4.50;;
9324;SDS011;4701;51.566;6.776;2023-01-10T09:14:46;24.73;;;4.73;;
9324;SDS011;4701;51.566;6.776;2023-01-10T09:16:50;23.10;;;4.40;;
9324;SDS011;4701;51.566;6.776;2023-01-10T09:18:51;19.43;;;4.67;;
9324;SDS011;4701;51.566;6.776;2023-01-10T09:20:55;19.03;;;5.20;;
9324;SDS011;4701;51.566;6.776;2023-01-10T09:22:56;22.03;;;6.90;;
9324;SDS011;4701;51.566;6.776;2023-01-10T09:25:00;22.47;;;4.87;;
9324;SDS011;4701;51.566;6.776;2023-01-10T09:27:01;20.23;;;5.33;;
9324;SDS011;4701;51.566;6.776;2023-01-10T09:29:03;19.10;;;5.17;;
9324;SDS011;4701;51.566;6.776;2023-01-10T09:31:05;25.87;;;5.57;;
9324;SDS011;4701;51.566;6.776;2023-01-10T09:33:09;25.53;;;5.23;;
9324;SDS011;4701;51.566;6.776;2023-01-10T09:35:12;18.30;;;4.83;;
9324;SDS011;4701;51.566;6.776;2023-01-10T09:37:14;27.53;;;5.53;;
9324;SDS011;4701;51.566;6.776;2023-01-10T09:39:16;26.87;;;5.30;;
9324;SDS011;4701;51.566;6.776;2023-01-10T09:41:23;21.67;;;4.63;;
9324;SDS011;4701;51.566;6.776;2023-01-10T09:43:45;25.50;;;4.73;;
9324;SDS011;4701;51.566;6.776;2023-01-10T09:45:58;18.47;;;4.77;;
9324;SDS011;4701;51.566;6.776;2023-01-10T09:48:05;24.03;;;5.17;;
9324;SDS011;4701;51.566;6.776;2023-01-10T09:50:16;22.97;;;4.70;;
9324;SDS011;4701;51.566;6.776;2023-01-10T09:52:24;20.07;;;4.47;;
9324;SDS011;4701;51.566;6.776;2023-01-10T09:54:30;17.40;;;4.47;;
9324;SDS011;4701;51.566;6.776;2023-01-10T09:56:36;18.47;;;4.23;;
9324;SDS011;4701;51.566;6.776;2023-01-10T09:58:39;25.30;;;7.13;;
9324;SDS011;4701;51.566;6.776;2023-01-10T10:00:44;18.70;;;4.77;;
9324;SDS011;4701;51.566;6.776;2023-01-10T10:02:50;18.87;;;3.83;;
9324;SDS011;4701;51.566;6.776;2023-01-10T10:05:09;20.87;;;4.60;;
9324;SDS011;4701;51.566;6.776;2023-01-10T10:09:47;19.47;;;4.77;;
9324;SDS011;4701;51.566;6.776;2023-01-10T10:11:55;27.00;;;5.93;;
9324;SDS011;4701;51.566;6.776;2023-01-10T10:14:16;18.33;;;4.60;;
9324;SDS011;4701;51.566;6.776;2023-01-10T10:16:29;31.03;;;5.90;;
9324;SDS011;4701;51.566;6.776;2023-01-10T10:18:40;26.97;;;6.00;;
9324;SDS011;4701;51.566;6.776;2023-01-10T10:20:57;23.70;;;5.73;;
9324;SDS011;4701;51.566;6.776;2023-01-10T10:23:10;28.10;;;9.90;;
9324;SDS011;4701;51.566;6.776;2023-01-10T10:25:25;22.27;;;4.53;;
9324;SDS011;4701;51.566;6.776;2023-01-10T10:27:52;26.27;;;5.70;;
9324;SDS011;4701;51.566;6.776;2023-01-10T10:30:17;24.03;;;4.83;;
9324;SDS011;4701;51.566;6.776;2023-01-10T10:32:33;16.83;;;5.03;;
9324;SDS011;4701;51.566;6.776;2023-01-10T10:34:51;19.77;;;4.50;;
9324;SDS011;4701;51.566;6.776;2023-01-10T10:36:58;17.30;;;4.10;;
9324;SDS011;4701;51.566;6.776;2023-01-10T10:39:07;24.37;;;5.40;;
9324;SDS011;4701;51.566;6.776;2023-01-10T10:41:14;16.43;;;4.10;;
9324;SDS011;4701;51.566;6.776;2023-01-10T10:43:25;21.30;;;4.87;;
9324;SDS011;4701;51.566;6.776;2023-01-10T10:45:34;22.43;;;4.53;;
9324;SDS011;4701;51.566;6.776;2023-01-10T10:47:39;22.47;;;4.50;;
9324;SDS011;4701;51.566;6.776;2023-01-10T11:05:33;23.57;;;7.27;;
9324;SDS011;4701;51.566;6.776;2023-01-10T11:07:37;24.97;;;6.90;;
9324;SDS011;4701;51.566;6.776;2023-01-10T11:09:39;30.10;;;6.50;;
9324;SDS011;4701;51.566;6.776;2023-01-10T11:11:42;18.73;;;5.20;;
9324;SDS011;4701;51.566;6.776;2023-01-10T11:13:48;23.90;;;6.43;;
9324;SDS011;4701;51.566;6.776;2023-01-10T11:15:54;19.90;;;7.43;;
9324;SDS011;4701;51.566;6.776;2023-01-10T11:18:02;24.70;;;6.50;;
9324;SDS011;4701;51.566;6.776;2023-01-10T11:20:06;25.47;;;6.50;;
9324;SDS011;4701;51.566;6.776;2023-01-10T11:22:17;19.63;;;6.10;;
9324;SDS011;4701;51.566;6.776;2023-01-10T11:24:20;27.93;;;6.63;;
9324;SDS011;4701;51.566;6.776;2023-01-10T11:26:26;21.27;;;5.03;;
9324;SDS011;4701;51.566;6.776;2023-01-10T11:28:38;17.93;;;5.53;;
9324;SDS011;4701;51.566;6.776;2023-01-10T11:30:40;19.10;;;5.10;;
9324;SDS011;4701;51.566;6.776;2023-01-10T11:32:52;22.17;;;5.97;;
9324;SDS011;4701;51.566;6.776;2023-01-10T11:34:57;23.03;;;6.07;;
9324;SDS011;4701;51.566;6.776;2023-01-10T11:37:02;21.40;;;5.67;;
9324;SDS011;4701;51.566;6.776;2023-01-10T11:39:12;19.07;;;5.33;;
9324;SDS011;4701;51.566;6.776;2023-01-10T11:41:24;21.67;;;4.60;;
9324;SDS011;4701;51.566;6.776;2023-01-10T11:43:32;20.63;;;4.27;;
9324;SDS011;4701;51.566;6.776;2023-01-10T11:45:35;20.43;;;4.30;;
9324;SDS011;4701;51.566;6.776;2023-01-10T11:47:38;14.33;;;4.30;;
9324;SDS011;4701;51.566;6.776;2023-01-10T11:49:41;19.33;;;4.43;;
9324;SDS011;4701;51.566;6.776;2023-01-10T11:51:44;27.63;;;4.60;;
9324;SDS011;4701;51.566;6.776;2023-01-10T11:53:49;18.97;;;5.90;;
9324;SDS011;4701;51.566;6.776;2023-01-10T11:55:58;18.47;;;5.77;;
9324;SDS011;4701;51.566;6.776;2023-01-10T11:58:02;26.87;;;6.30;;
9324;SDS011;4701;51.566;6.776;2023-01-10T12:00:07;20.57;;;6.57;;
9324;SDS011;4701;51.566;6.776;2023-01-10T12:02:15;30.60;;;6.50;;
9324;SDS011;4701;51.566;6.776;2023-01-10T12:04:23;19.37;;;6.87;;
9324;SDS011;4701;51.566;6.776;2023-01-10T12:06:27;16.33;;;5.87;;
9324;SDS011;4701;51.566;6.776;2023-01-10T12:08:30;27.07;;;6.63;;
9324;SDS011;4701;51.566;6.776;2023-01-10T12:10:33;21.17;;;6.30;;
9324;SDS011;4701;51.566;6.776;2023-01-10T12:12:37;24.83;;;6.40;;
9324;SDS011;4701;51.566;6.776;2023-01-10T12:14:39;26.13;;;6.40;;
9324;SDS011;4701;51.566;6.776;2023-01-10T12:16:41;24.03;;;5.40;;
9324;SDS011;4701;51.566;6.776;2023-01-10T12:18:42;15.87;;;4.73;;
9324;SDS011;4701;51.566;6.776;2023-01-10T12:20:45;19.03;;;4.53;;
9324;SDS011;4701;51.566;6.776;2023-01-10T12:22:50;16.83;;;4.53;;
9324;SDS011;4701;51.566;6.776;2023-01-10T12:24:56;15.93;;;4.30;;
9324;SDS011;4701;51.566;6.776;2023-01-10T12:27:15;16.47;;;4.50;;
9324;SDS011;4701;51.566;6.776;2023-01-10T12:29:22;15.73;;;5.03;;
9324;SDS011;4701;51.566;6.776;2023-01-10T12:31:26;22.50;;;5.20;;
9324;SDS011;4701;51.566;6.776;2023-01-10T12:33:32;20.73;;;5.30;;
9324;SDS011;4701;51.566;6.776;2023-01-10T12:35:38;20.20;;;5.37;;
9324;SDS011;4701;51.566;6.776;2023-01-10T12:37:44;19.83;;;4.63;;
9324;SDS011;4701;51.566;6.776;2023-01-10T12:39:50;21.77;;;4.60;;
9324;SDS011;4701;51.566;6.776;2023-01-10T12:42:01;15.87;;;4.47;;
9324;SDS011;4701;51.566;6.776;2023-01-10T12:44:34;17.10;;;3.53;;
9324;SDS011;4701;51.566;6.776;2023-01-10T12:46:42;19.00;;;4.43;;
9324;SDS011;4701;51.566;6.776;2023-01-10T12:48:50;22.47;;;4.27;;
9324;SDS011;4701;51.566;6.776;2023-01-10T12:51:01;20.10;;;4.63;;
9324;SDS011;4701;51.566;6.776;2023-01-10T12:53:10;17.67;;;4.47;;
9324;SDS011;4701;51.566;6.776;2023-01-10T12:55:20;17.60;;;3.93;;
9324;SDS011;4701;51.566;6.776;2023-01-10T12:57:29;18.43;;;3.63;;
9324;SDS011;4701;51.566;6.776;2023-01-10T12:59:38;17.90;;;4.37;;
9324;SDS011;4701;51.566;6.776;2023-01-10T13:01:43;18.63;;;4.43;;
9324;SDS011;4701;51.566;6.776;2023-01-10T13:03:52;23.77;;;4.20;;
9324;SDS011;4701;51.566;6.776;2023-01-10T13:05:57;17.37;;;3.90;;
9324;SDS011;4701;51.566;6.776;2023-01-10T13:08:02;25.90;;;4.07;;